Time;durP1;ratioP1;P1;durP2;ratioP2;P2;SDS_P1;SDS_P2;PMS_P1;PMS_P2;Temp;Humidity;BMP_temperature;BMP_pressure;BME280_temperature;BME280_humidity;BME280_pressure;Samples;Min_cycle;Max_cycle;Signal;HPM_P1;HPM_P2
2023/11/22 00:01:19;;;;;;;;;;;;;;;-144.99;100.00;67352.69;5076516;28;19966;-80
2023/11/22 00:03:44;;;;;;;;;;;;;;;-144.99;100.00;67352.69;5075157;28;19912;-80
2023/11/22 00:06:10;;;;;;;;;;;;;;;-144.99;100.00;67352.69;5093491;28;19955;-80
2023/11/22 00:08:35;;;;;;;;;;;;;;;-144.99;100.00;67352.69;5070210;28;19989;-80
2023/11/22 00:11:01;;;;;;;;;;;;;;;-144.99;100.00;67352.69;5077741;28;19912;-80
2023/11/22 00:13:26;;;;;;;;;;;;;;;-144.99;100.00;67352.69;5062727;28;20019;-80
2023/11/22 00:15:51;;;;;;;;;;;;;;;-144.99;100.00;67352.69;5073194;28;19923;-80
2023/11/22 00:18:16;;;;;;;;;;;;;;;-144.99;100.00;67352.69;5058368;28;19913;-80
2023/11/22 00:20:41;;;;;;;;;;;;;;;-144.99;100.00;67352.69;5060694;28;19921;-80
2023/11/22 00:23:07;;;;;;;;;;;;;;;-144.99;100.00;67352.69;5079656;28;19912;-80
2023/11/22 00:25:33;;;;;;;;;;;;;;;-144.99;100.00;67352.69;5091810;28;19942;-80
2023/11/22 00:27:58;;;;;;;;;;;;;;;-144.99;100.00;67352.69;5068075;28;20292;-80
2023/11/22 00:30:23;;;;;;;;;;;;;;;-144.99;100.00;67352.69;5061423;28;19912;-80
2023/11/22 00:32:49;;;;;;;;;;;;;;;-144.99;100.00;67352.69;5064535;28;19912;-80
2023/11/22 00:35:14;;;;;;;;;;;;;;;-144.99;100.00;67352.69;5084179;28;20529;-80
2023/11/22 00:37:40;;;;;;;;;;;;;;;-144.99;100.00;67352.69;5085333;28;19912;-80
2023/11/22 00:40:10;;;;;;;;;;;;;;;-144.99;100.00;67352.69;5097703;28;19916;-80
2023/11/22 00:42:36;;;;;;;;;;;;;;;-144.99;100.00;67352.69;5074254;28;19955;-80
2023/11/22 00:45:01;;;;;;;;;;;;;;;-144.99;100.00;67352.69;5073903;28;19919;-80
2023/11/22 00:47:26;;;;;;;;;;;;;;;-144.99;100.00;67352.69;5088072;28;19916;-80
2023/11/22 00:49:52;;;;;;;;;;;;;;;-144.99;100.00;67352.69;5095757;28;19916;-80
2023/11/22 00:52:17;;;;;;;;;;;;;;;-144.99;100.00;67352.69;5084693;28;20316;-80
2023/11/22 00:54:42;;;;;;;;;;;;;;;-144.99;100.00;67352.69;5060210;28;19959;-80
2023/11/22 00:57:08;;;;;;;;;;;;;;;-144.99;100.00;67352.69;5080389;28;19930;-80
2023/11/22 00:59:33;;;;;;;;;;;;;;;-144.99;100.00;67352.69;5077841;28;19917;-80
2023/11/22 01:01:58;;;;;;;;;;;;;;;-144.99;100.00;67352.69;5068303;28;20331;-80
2023/11/22 01:04:23;;;;;;;;;;;;;;;-144.99;100.00;67352.69;5093696;28;19913;-81
2023/11/22 01:06:49;;;;;;;;;;;;;;;-144.99;100.00;67352.69;5060433;28;19916;-80
2023/11/22 01:09:14;;;;;;;;;;;;;;;-144.99;100.00;67352.69;5095186;28;19923;-80
2023/11/22 01:11:39;;;;;;;;;;;;;;;-144.99;100.00;67352.69;5098541;28;19913;-80
2023/11/22 01:14:05;;;;;;;;;;;;;;;-144.99;100.00;67352.69;5059660;28;19913;-80
2023/11/22 01:16:30;;;;;;;;;;;;;;;-144.99;100.00;67352.69;5073573;28;20019;-80
2023/11/22 01:18:55;;;;;;;;;;;;;;;-144.99;100.00;67352.69;5100517;28;19912;-80
2023/11/22 01:21:21;;;;;;;;;;;;;;;-144.99;100.00;67352.69;5078284;28;19912;-80
2023/11/22 01:23:46;;;;;;;;;;;;;;;-144.99;100.00;67352.69;5097352;28;19938;-80
2023/11/22 01:26:12;;;;;;;;;;;;;;;-144.99;100.00;67352.69;5085932;28;19920;-80
2023/11/22 01:28:37;;;;;;;;;;;;;;;-144.99;100.00;67352.69;5076173;28;19913;-79
2023/11/22 01:31:02;;;;;;;;;;;;;;;-144.99;100.00;67352.69;5075782;28;19912;-80
2023/11/22 01:33:27;;;;;;;;;;;;;;;-144.99;100.00;67352.69;5081696;28;20285;-80
2023/11/22 01:35:53;;;;;;;;;;;;;;;-144.99;100.00;67352.69;5078383;28;19954;-79
2023/11/22 01:38:18;;;;;;;;;;;;;;;-144.99;100.00;67352.69;5084210;28;19912;-79
2023/11/22 01:40:45;;;;;;;;;;;;;;;-144.99;100.00;67352.69;5098303;28;19912;-80
2023/11/22 01:43:13;;;;;;;;;;;;;;;-144.99;100.00;67352.69;5096188;28;19912;-79
2023/11/22 01:45:38;;;;;;;;;;;;;;;-144.99;100.00;67352.69;5096634;28;20304;-79
2023/11/22 01:48:03;;;;;;;;;;;;;;;-144.99;100.00;67352.69;5069315;28;19913;-79
2023/11/22 01:50:28;;;;;;;;;;;;;;;-144.99;100.00;67352.69;5084627;28;19913;-79
2023/11/22 01:52:54;;;;;;;;;;;;;;;-144.99;100.00;67352.69;5084675;28;19947;-79
2023/11/22 01:55:19;;;;;;;;;;;;;;;-144.99;100.00;67352.69;5083783;28;20305;-79
2023/11/22 01:57:45;;;;;;;;;;;;;;;-144.99;100.00;67352.69;5080848;28;20308;-79
2023/11/22 02:00:14;;;;;;;;;;;;;;;-144.99;100.00;67352.69;5076065;28;19913;-79
2023/11/22 02:02:39;;;;;;;;;;;;;;;-144.99;100.00;67352.69;5078542;28;19919;-79
2023/11/22 02:05:05;;;;;;;;;;;;;;;-144.99;100.00;67352.69;5070164;28;19917;-79
2023/11/22 02:07:31;;;;;;;;;;;;;;;-144.99;100.00;67352.69;5077129;28;19924;-79
2023/11/22 02:09:57;;;;;;;;;;;;;;;-144.99;100.00;67352.69;5052646;28;19916;-79
2023/11/22 02:12:23;;;;;;;;;;;;;;;-144.99;100.00;67352.69;5077322;28;19916;-79
2023/11/22 02:14:49;;;;;;;;;;;;;;;-144.99;100.00;67352.69;5075271;28;19922;-79
2023/11/22 02:17:16;;;;;;;;;;;;;;;-144.99;100.00;67352.69;5056424;28;20003;-79
2023/11/22 02:19:42;;;;;;;;;;;;;;;-144.99;100.00;67352.69;5075184;28;19995;-79
2023/11/22 02:22:07;;;;;;;;;;;;;;;-144.99;100.00;67352.69;5072353;28;19959;-79
2023/11/22 02:24:34;;;;;;;;;;;;;;;-144.99;100.00;67352.69;5066321;28;20270;-79
2023/11/22 02:27:00;;;;;;;;;;;;;;;-144.99;100.00;67352.69;5056874;28;19916;-78
2023/11/22 02:29:25;;;;;;;;;;;;;;;-144.99;100.00;67352.69;5073021;28;19919;-79
2023/11/22 02:31:50;;;;;;;;;;;;;;;-144.99;100.00;67352.69;5074073;28;20003;-78
2023/11/22 02:34:15;;;;;;;;;;;;;;;-144.99;100.00;67352.69;5055308;28;19962;-78
2023/11/22 02:36:44;;;;;;;;;;;;;;;-144.99;100.00;67352.69;5075016;28;19912;-79
2023/11/22 02:39:09;;;;;;;;;;;;;;;-144.99;100.00;67352.69;5084153;28;19912;-80
2023/11/22 02:41:35;;;;;;;;;;;;;;;-144.99;100.00;67352.69;5066761;28;19955;-79
2023/11/22 02:44:00;;;;;;;;;;;;;;;-144.99;100.00;67352.69;5067690;28;19920;-79
2023/11/22 02:46:26;;;;;;;;;;;;;;;-144.99;100.00;67352.69;5093356;28;20013;-80
2023/11/22 02:48:51;;;;;;;;;;;;;;;-144.99;100.00;67352.69;5085955;28;19912;-79
2023/11/22 02:51:17;;;;;;;;;;;;;;;-144.99;100.00;67352.69;5067495;28;19935;-79
2023/11/22 02:53:43;;;;;;;;;;;;;;;-144.99;100.00;67352.69;5080062;28;19917;-79
2023/11/22 02:56:09;;;;;;;;;;;;;;;-144.99;100.00;67352.69;5082482;28;19912;-79
2023/11/22 02:58:34;;;;;;;;;;;;;;;-144.99;100.00;67352.69;5072497;28;19913;-79
2023/11/22 03:00:59;;;;;;;;;;;;;;;-144.99;100.00;67352.69;5082409;28;19912;-80
2023/11/22 03:03:24;;;;;;;;;;;;;;;-144.99;100.00;67352.69;5086699;28;19943;-79
2023/11/22 03:05:53;;;;;;;;;;;;;;;-144.99;100.00;67352.69;5085692;28;19920;-79
2023/11/22 03:08:18;;;;;;;;;;;;;;;-144.99;100.00;67352.69;5109845;22;19924;-82
2023/11/22 03:10:43;;;;;;;;;;;;;;;-144.99;100.00;67352.69;5080237;28;19932;-81
2023/11/22 03:13:08;;;;;;;;;;;;;;;-144.99;100.00;67352.69;5079776;28;19912;-81
2023/11/22 03:15:34;;;;;;;;;;;;;;;-144.99;100.00;67352.69;5079981;28;19912;-80
2023/11/22 03:18:01;;;;;;;;;;;;;;;-144.99;100.00;67352.69;5092650;28;20127;-81
2023/11/22 03:20:26;;;;;;;;;;;;;;;-144.99;100.00;67352.69;5094719;28;19912;-80
2023/11/22 03:22:51;;;;;;;;;;;;;;;-144.99;100.00;67352.69;5062008;28;19913;-80
2023/11/22 03:25:17;;;;;;;;;;;;;;;-144.99;100.00;67352.69;5074883;28;20000;-81
2023/11/22 03:27:43;;;;;;;;;;;;;;;-144.99;100.00;67352.69;5072868;28;20330;-82
2023/11/22 03:30:11;;;;;;;;;;;;;;;-144.99;100.00;67352.69;5071093;28;19912;-81
2023/11/22 03:32:39;;;;;;;;;;;;;;;-144.99;100.00;67352.69;5063916;28;19965;-80
2023/11/22 03:35:05;;;;;;;;;;;;;;;-144.99;100.00;67352.69;5056732;28;19967;-80
2023/11/22 03:37:30;;;;;;;;;;;;;;;-144.99;100.00;67352.69;5074743;28;19912;-80
2023/11/22 03:39:55;;;;;;;;;;;;;;;-144.99;100.00;67352.69;5057069;28;20344;-80
2023/11/22 03:42:21;;;;;;;;;;;;;;;-144.99;100.00;67352.69;5056977;28;19912;-80
2023/11/22 03:44:46;;;;;;;;;;;;;;;-144.99;100.00;67352.69;5057178;28;19962;-80
2023/11/22 03:47:12;;;;;;;;;;;;;;;-144.99;100.00;67352.69;5091560;28;19969;-80
2023/11/22 03:49:38;;;;;;;;;;;;;;;-144.99;100.00;67352.69;5074955;28;19919;-80
2023/11/22 03:52:03;;;;;;;;;;;;;;;-144.99;100.00;67352.69;5074474;28;19917;-80
2023/11/22 03:54:28;;;;;;;;;;;;;;;-144.99;100.00;67352.69;5074853;28;19916;-82
2023/11/22 03:56:53;;;;;;;;;;;;;;;-144.99;100.00;67352.69;5074495;28;20363;-80
2023/11/22 03:59:19;;;;;;;;;;;;;;;-144.99;100.00;67352.69;5056873;28;19913;-79
2023/11/22 04:01:44;;;;;;;;;;;;;;;-144.99;100.00;67352.69;5075090;28;19913;-80
2023/11/22 04:04:09;;;;;;;;;;;;;;;-144.99;100.00;67352.69;5074539;28;19913;-79
2023/11/22 04:06:35;;;;;;;;;;;;;;;-144.99;100.00;67352.69;5056303;28;19999;-80
2023/11/22 04:09:01;;;;;;;;;;;;;;;-144.99;100.00;67352.69;5078715;28;19923;-81
2023/11/22 04:11:28;;;;;;;;;;;;;;;-144.99;100.00;67352.69;5062226;28;19919;-81
2023/11/22 04:13:53;;;;;;;;;;;;;;;-144.99;100.00;67352.69;5079085;28;20481;-81
2023/11/22 04:16:18;;;;;;;;;;;;;;;-144.99;100.00;67352.69;5080023;28;19912;-81
2023/11/22 04:18:44;;;;;;;;;;;;;;;-144.99;100.00;67352.69;5079158;28;19912;-80
2023/11/22 04:21:09;;;;;;;;;;;;;;;-144.99;100.00;67352.69;5077034;28;19913;-80
2023/11/22 04:23:34;;;;;;;;;;;;;;;-144.99;100.00;67352.69;5078209;28;19952;-80
2023/11/22 04:26:00;;;;;;;;;;;;;;;-144.99;100.00;67352.69;5077675;28;20359;-80
2023/11/22 04:28:26;;;;;;;;;;;;;;;-144.99;100.00;67352.69;5059525;28;19922;-80
2023/11/22 04:30:52;;;;;;;;;;;;;;;-144.99;100.00;67352.69;5059838;28;19912;-80
2023/11/22 04:33:17;;;;;;;;;;;;;;;-144.99;100.00;67352.69;5076539;28;20298;-80
2023/11/22 04:35:42;;;;;;;;;;;;;;;-144.99;100.00;67352.69;5077097;28;19919;-79
2023/11/22 04:38:08;;;;;;;;;;;;;;;-144.99;100.00;67352.69;5058683;28;20318;-80
2023/11/22 04:40:33;;;;;;;;;;;;;;;-144.99;100.00;67352.69;5077106;28;19916;-79
2023/11/22 04:42:58;;;;;;;;;;;;;;;-144.99;100.00;67352.69;5076865;28;19943;-80
2023/11/22 04:45:24;;;;;;;;;;;;;;;-144.99;100.00;67352.69;5076709;28;19920;-79
2023/11/22 04:47:49;;;;;;;;;;;;;;;-144.99;100.00;67352.69;5075975;28;19924;-79
2023/11/22 04:50:14;;;;;;;;;;;;;;;-144.99;100.00;67352.69;5076199;28;19923;-79
2023/11/22 04:52:39;;;;;;;;;;;;;;;-144.99;100.00;67352.69;5076455;28;19924;-79
2023/11/22 04:55:05;;;;;;;;;;;;;;;-144.99;100.00;67352.69;5076347;28;19916;-80
2023/11/22 04:57:30;;;;;;;;;;;;;;;-144.99;100.00;67352.69;5078149;28;20655;-80
2023/11/22 04:59:55;;;;;;;;;;;;;;;-144.99;100.00;67352.69;5077739;28;19912;-79
2023/11/22 05:02:20;;;;;;;;;;;;;;;-144.99;100.00;67352.69;5077546;28;20443;-79
2023/11/22 05:04:49;;;;;;;;;;;;;;;-144.99;100.00;67352.69;5077648;28;19919;-79
2023/11/22 05:07:15;;;;;;;;;;;;;;;-144.99;100.00;67352.69;5076733;28;20018;-79
2023/11/22 05:09:41;;;;;;;;;;;;;;;-144.99;100.00;67352.69;5076498;28;20343;-79
2023/11/22 05:12:06;;;;;;;;;;;;;;;-144.99;100.00;67352.69;5076469;28;19919;-80
2023/11/22 05:14:31;;;;;;;;;;;;;;;-144.99;100.00;67352.69;5075975;28;19920;-80
2023/11/22 05:16:57;;;;;;;;;;;;;;;-144.99;100.00;67352.69;5076104;28;19912;-79
2023/11/22 05:19:22;;;;;;;;;;;;;;;-144.99;100.00;67352.69;5075439;28;20374;-77
2023/11/22 05:21:47;;;;;;;;;;;;;;;-144.99;100.00;67352.69;5075217;28;20474;-79
2023/11/22 05:24:12;;;;;;;;;;;;;;;-144.99;100.00;67352.69;5074703;28;19912;-78
2023/11/22 05:26:38;;;;;;;;;;;;;;;-144.99;100.00;67352.69;5074746;28;20363;-79
2023/11/22 05:29:04;;;;;;;;;;;;;;;-144.99;100.00;67352.69;5056435;28;19917;-78
2023/11/22 05:31:30;;;;;;;;;;;;;;;-144.99;100.00;67352.69;5074625;28;19934;-78
2023/11/22 05:33:55;;;;;;;;;;;;;;;-144.99;100.00;67352.69;5074437;28;20007;-79
2023/11/22 05:36:20;;;;;;;;;;;;;;;-144.99;100.00;67352.69;5055588;28;19951;-79
2023/11/22 05:38:45;;;;;;;;;;;;;;;-144.99;100.00;67352.69;5075140;28;19916;-79
2023/11/22 05:41:11;;;;;;;;;;;;;;;-144.99;100.00;67352.69;5064936;28;19916;-78
2023/11/22 05:43:36;;;;;;;;;;;;;;;-144.99;100.00;67352.69;5083976;28;19929;-79
2023/11/22 05:46:04;;;;;;;;;;;;;;;-144.99;100.00;67352.69;5090439;28;19923;-78
2023/11/22 05:48:30;;;;;;;;;;;;;;;-144.99;100.00;67352.69;5074277;28;19913;-79
2023/11/22 05:50:55;;;;;;;;;;;;;;;-144.99;100.00;67352.69;5056027;28;20291;-78
2023/11/22 05:53:21;;;;;;;;;;;;;;;-144.99;100.00;67352.69;5066696;28;19913;-79
2023/11/22 05:55:48;;;;;;;;;;;;;;;-144.99;100.00;67352.69;5061207;28;19912;-78
2023/11/22 05:58:16;;;;;;;;;;;;;;;-144.99;100.00;67352.69;5072167;28;19919;-77
2023/11/22 06:00:41;;;;;;;;;;;;;;;-144.99;100.00;67352.69;5054368;28;19917;-77
2023/11/22 06:03:07;;;;;;;;;;;;;;;-144.99;100.00;67352.69;5072347;28;19922;-78
2023/11/22 06:05:32;;;;;;;;;;;;;;;-144.99;100.00;67352.69;5054123;28;19913;-76
2023/11/22 06:07:57;;;;;;;;;;;;;;;-144.99;100.00;67352.69;5063653;28;19967;-78
2023/11/22 06:10:22;;;;;;;;;;;;;;;-144.99;100.00;67352.69;5078477;28;20436;-76
2023/11/22 06:12:47;;;;;;;;;;;;;;;-144.99;100.00;67352.69;5054351;28;20448;-77
2023/11/22 06:15:13;;;;;;;;;;;;;;;-144.99;100.00;67352.69;5072209;28;20011;-77
2023/11/22 06:17:38;;;;;;;;;;;;;;;-144.99;100.00;67352.69;5072272;28;20009;-75
2023/11/22 06:20:04;;;;;;;;;;;;;;;-144.99;100.00;67352.69;5054491;28;19953;-76
2023/11/22 06:22:29;;;;;;;;;;;;;;;-144.99;100.00;67352.69;5054409;28;19935;-79
2023/11/22 06:24:54;;;;;;;;;;;;;;;-144.99;100.00;67352.69;5054677;28;19920;-78
2023/11/22 06:27:20;;;;;;;;;;;;;;;-144.99;100.00;67352.69;5072387;28;20410;-79
2023/11/22 06:29:46;;;;;;;;;;;;;;;-144.99;100.00;67352.69;5054908;28;19912;-78
2023/11/22 06:32:12;;;;;;;;;;;;;;;-144.99;100.00;67352.69;5073088;28;20294;-78
2023/11/22 06:34:37;;;;;;;;;;;;;;;-144.99;100.00;67352.69;5054296;28;19913;-78
2023/11/22 06:37:02;;;;;;;;;;;;;;;-144.99;100.00;67352.69;5054671;28;19913;-77
2023/11/22 06:39:27;;;;;;;;;;;;;;;-144.99;100.00;67352.69;5073206;28;19913;-79
2023/11/22 06:41:53;;;;;;;;;;;;;;;-144.99;100.00;67352.69;5055120;28;19916;-79
2023/11/22 06:44:18;;;;;;;;;;;;;;;-144.99;100.00;67352.69;5057846;28;20463;-79
2023/11/22 06:46:43;;;;;;;;;;;;;;;-144.99;100.00;67352.69;5060002;28;20375;-78
2023/11/22 06:49:09;;;;;;;;;;;;;;;-144.99;100.00;67352.69;5101871;28;19908;-75
2023/11/22 06:51:34;;;;;;;;;;;;;;;-144.99;100.00;67352.69;5101709;28;19927;-76
2023/11/22 06:53:59;;;;;;;;;;;;;;;-144.99;100.00;67352.69;5080539;28;20002;-78
2023/11/22 06:56:24;;;;;;;;;;;;;;;-144.99;100.00;67352.69;5076722;28;20307;-78
2023/11/22 06:58:51;;;;;;;;;;;;;;;-144.99;100.00;67352.69;5077087;28;19920;-76
2023/11/22 07:01:16;;;;;;;;;;;;;;;-144.99;100.00;67352.69;5077085;28;19912;-77
2023/11/22 07:03:41;;;;;;;;;;;;;;;-144.99;100.00;67352.69;5077327;28;19981;-78
2023/11/22 07:06:07;;;;;;;;;;;;;;;-144.99;100.00;67352.69;5077158;28;19916;-78
2023/11/22 07:08:33;;;;;;;;;;;;;;;-144.99;100.00;67352.69;5059275;28;19958;-78
2023/11/22 07:10:58;;;;;;;;;;;;;;;-144.99;100.00;67352.69;5077499;28;19916;-78
2023/11/22 07:13:24;;;;;;;;;;;;;;;-144.99;100.00;67352.69;5077569;28;19916;-78
2023/11/22 07:15:50;;;;;;;;;;;;;;;-144.99;100.00;67352.69;5077559;28;19912;-80
2023/11/22 07:18:15;;;;;;;;;;;;;;;-144.99;100.00;67352.69;5076356;28;19958;-78
2023/11/22 07:20:41;;;;;;;;;;;;;;;-144.99;100.00;67352.69;5077153;28;20003;-78
2023/11/22 07:23:06;;;;;;;;;;;;;;;-144.99;100.00;67352.69;5078200;28;19912;-78
2023/11/22 07:25:33;;;;;;;;;;;;;;;-144.99;100.00;67352.69;5078883;28;19912;-78
2023/11/22 07:27:59;;;;;;;;;;;;;;;-144.99;100.00;67352.69;5077788;28;19920;-79
2023/11/22 07:30:29;;;;;;;;;;;;;;;-144.99;100.00;67352.69;5078049;28;20384;-79
2023/11/22 07:32:54;;;;;;;;;;;;;;;-144.99;100.00;67352.69;5078029;28;19969;-79
2023/11/22 07:35:20;;;;;;;;;;;;;;;-144.99;100.00;67352.69;5077028;28;20003;-79
2023/11/22 07:37:46;;;;;;;;;;;;;;;-144.99;100.00;67352.69;5077903;28;19919;-78
2023/11/22 07:40:13;;;;;;;;;;;;;;;-144.99;100.00;67352.69;5078082;28;19913;-86
2023/11/22 07:42:39;;;;;;;;;;;;;;;-144.99;100.00;67352.69;5060537;28;19916;-78
2023/11/22 07:45:04;;;;;;;;;;;;;;;-144.99;100.00;67352.69;5062360;28;20019;-79
2023/11/22 07:47:30;;;;;;;;;;;;;;;-144.99;100.00;67352.69;5080769;28;19923;-79
2023/11/22 07:49:55;;;;;;;;;;;;;;;-144.99;100.00;67352.69;5081803;28;19957;-80
2023/11/22 07:52:20;;;;;;;;;;;;;;;-144.99;100.00;67352.69;5083739;28;19921;-80
2023/11/22 07:54:46;;;;;;;;;;;;;;;-144.99;100.00;67352.69;5063712;28;19912;-78
2023/11/22 07:57:11;;;;;;;;;;;;;;;-144.99;100.00;67352.69;5082964;28;19912;-79
2023/11/22 07:59:36;;;;;;;;;;;;;;;-144.99;100.00;67352.69;5083338;28;19998;-79
2023/11/22 08:02:02;;;;;;;;;;;;;;;-144.99;100.00;67352.69;5082435;28;20015;-80
2023/11/22 08:04:28;;;;;;;;;;;;;;;-144.99;100.00;67352.69;5064792;28;20367;-80
2023/11/22 08:06:56;;;;;;;;;;;;;;;-144.99;100.00;67352.69;5082853;28;20050;-79
2023/11/22 08:09:22;;;;;;;;;;;;;;;-144.99;100.00;67352.69;5095897;28;19919;-75
2023/11/22 08:11:47;;;;;;;;;;;;;;;-144.99;100.00;67352.69;5059619;28;19927;-77
2023/11/22 08:14:14;;;;;;;;;;;;;;;-144.99;100.00;67352.69;5074714;28;19960;-78
2023/11/22 08:16:42;;;;;;;;;;;;;;;-144.99;100.00;67352.69;5057439;28;19935;-78
2023/11/22 08:19:07;;;;;;;;;;;;;;;-144.99;100.00;67352.69;5074998;28;19958;-78
2023/11/22 08:21:33;;;;;;;;;;;;;;;-144.99;100.00;67352.69;5068808;28;20100;-76
2023/11/22 08:23:59;;;;;;;;;;;;;;;-144.99;100.00;67352.69;5076368;28;20379;-76
2023/11/22 08:26:25;;;;;;;;;;;;;;;-144.99;100.00;67352.69;5072916;28;19924;-78
2023/11/22 08:28:50;;;;;;;;;;;;;;;-144.99;100.00;67352.69;5075914;28;19913;-78
2023/11/22 08:31:16;;;;;;;;;;;;;;;-144.99;100.00;67352.69;5076267;28;19916;-76
2023/11/22 08:33:42;;;;;;;;;;;;;;;-144.99;100.00;67352.69;5076720;28;20275;-77
2023/11/22 08:36:08;;;;;;;;;;;;;;;-144.99;100.00;67352.69;5076565;28;19991;-77
2023/11/22 08:38:34;;;;;;;;;;;;;;;-144.99;100.00;67352.69;5058969;28;19912;-78
2023/11/22 08:41:03;;;;;;;;;;;;;;;-144.99;100.00;67352.69;5075533;28;20432;-81
2023/11/22 08:43:28;;;;;;;;;;;;;;;-144.99;100.00;67352.69;5071501;28;19920;-80
2023/11/22 08:45:53;;;;;;;;;;;;;;;-144.99;100.00;67352.69;5075226;28;19923;-80
2023/11/22 08:48:19;;;;;;;;;;;;;;;-144.99;100.00;67352.69;5059083;28;20325;-80
2023/11/22 08:50:47;;;;;;;;;;;;;;;-144.99;100.00;67352.69;5059022;28;19912;-80
2023/11/22 08:53:12;;;;;;;;;;;;;;;-144.99;100.00;67352.69;5058359;28;19934;-79
2023/11/22 08:55:41;;;;;;;;;;;;;;;-144.99;100.00;67352.69;5058427;28;19956;-81
2023/11/22 08:58:08;;;;;;;;;;;;;;;-144.99;100.00;67352.69;5065503;28;19912;-79
2023/11/22 09:00:36;;;;;;;;;;;;;;;-144.99;100.00;67352.69;5091472;28;19951;-81
2023/11/22 09:03:03;;;;;;;;;;;;;;;-144.99;100.00;67352.69;5088162;28;19917;-79
2023/11/22 09:05:29;;;;;;;;;;;;;;;-144.99;100.00;67352.69;5090413;28;19912;-79
2023/11/22 09:07:55;;;;;;;;;;;;;;;-144.99;100.00;67352.69;5083968;28;19931;-80
2023/11/22 09:10:21;;;;;;;;;;;;;;;-144.99;100.00;67352.69;5107688;22;19943;-78
2023/11/22 09:12:47;;;;;;;;;;;;;;;-144.99;100.00;67352.69;5074254;28;20321;-78
2023/11/22 09:15:15;;;;;;;;;;;;;;;-144.99;100.00;67352.69;5074819;28;20066;-79
2023/11/22 09:17:43;;;;;;;;;;;;;;;-144.99;100.00;67352.69;5096519;28;19911;-78
2023/11/22 09:20:12;;;;;;;;;;;;;;;-144.99;100.00;67352.69;5091673;28;19912;-79
2023/11/22 09:22:49;;;;;;;;;;;;;;;-144.99;100.00;67352.69;5078943;28;19971;-79
2023/11/22 09:25:16;;;;;;;;;;;;;;;-144.99;100.00;67352.69;5078130;28;19995;-79
2023/11/22 09:27:42;;;;;;;;;;;;;;;-144.99;100.00;67352.69;5104868;28;20347;-79
2023/11/22 09:30:11;;;;;;;;;;;;;;;-144.99;100.00;67352.69;5109473;28;20006;-79
2023/11/22 09:32:38;;;;;;;;;;;;;;;-144.99;100.00;67352.69;5115423;28;19919;-79
2023/11/22 09:35:03;;;;;;;;;;;;;;;-144.99;100.00;67352.69;5106761;28;19912;-79
2023/11/22 09:37:29;;;;;;;;;;;;;;;-144.99;100.00;67352.69;5114965;28;20377;-79
2023/11/22 09:39:54;;;;;;;;;;;;;;;-144.99;100.00;67352.69;5091754;28;19913;-79
2023/11/22 09:42:20;;;;;;;;;;;;;;;-144.99;100.00;67352.69;5113483;28;20313;-80
2023/11/22 09:44:45;;;;;;;;;;;;;;;-144.99;100.00;67352.69;5088180;28;20374;-79
2023/11/22 09:47:11;;;;;;;;;;;;;;;-144.99;100.00;67352.69;5107295;28;19923;-80
2023/11/22 09:49:40;;;;;;;;;;;;;;;-144.99;100.00;67352.69;5107234;28;20386;-80
2023/11/22 09:52:08;;;;;;;;;;;;;;;-144.99;100.00;67352.69;5106827;28;19961;-80
2023/11/22 09:54:34;;;;;;;;;;;;;;;-144.99;100.00;67352.69;5106713;28;20274;-80
2023/11/22 09:57:00;;;;;;;;;;;;;;;-144.99;100.00;67352.69;5088029;28;19912;-80
2023/11/22 09:59:39;;;;;;;;;;;;;;;-144.99;100.00;67352.69;5071413;28;19916;-80
2023/11/22 10:02:06;;;;;;;;;;;;;;;-144.99;100.00;67352.69;5093903;28;19916;-80
2023/11/22 10:04:31;;;;;;;;;;;;;;;-144.99;100.00;67352.69;5093753;28;19912;-80
2023/11/22 10:06:58;;;;;;;;;;;;;;;-144.99;100.00;67352.69;5075496;28;19924;-80
2023/11/22 10:09:24;;;;;;;;;;;;;;;-144.99;100.00;67352.69;5093876;28;19920;-80
2023/11/22 10:11:50;;;;;;;;;;;;;;;-144.99;100.00;67352.69;5077255;28;19919;-80
2023/11/22 10:14:27;;;;;;;;;;;;;;;-144.99;100.00;67352.69;5093632;28;20386;-80
2023/11/22 10:16:59;;;;;;;;;;;;;;;-144.99;100.00;67352.69;5075053;28;19912;-79
2023/11/22 10:19:25;;;;;;;;;;;;;;;-144.99;100.00;67352.69;5092558;28;19958;-80
2023/11/22 10:22:02;;;;;;;;;;;;;;;-144.99;100.00;67352.69;5093530;28;19946;-80
2023/11/22 10:24:30;;;;;;;;;;;;;;;-144.99;100.00;67352.69;5069318;28;19915;-80
2023/11/22 10:26:57;;;;;;;;;;;;;;;-144.99;100.00;67352.69;5074708;28;20275;-82
2023/11/22 10:29:24;;;;;;;;;;;;;;;-144.99;100.00;67352.69;5074830;28;19955;-80
2023/11/22 10:31:50;;;;;;;;;;;;;;;-144.99;100.00;67352.69;5096475;28;20344;-81
2023/11/22 10:34:18;;;;;;;;;;;;;;;-144.99;100.00;67352.69;5075404;28;20390;-81
2023/11/22 10:36:44;;;;;;;;;;;;;;;-144.99;100.00;67352.69;5093190;28;20423;-81
2023/11/22 10:39:15;;;;;;;;;;;;;;;-144.99;100.00;67352.69;5093499;28;19913;-79
2023/11/22 10:41:40;;;;;;;;;;;;;;;-144.99;100.00;67352.69;5074596;28;19916;-81
2023/11/22 10:44:06;;;;;;;;;;;;;;;-144.99;100.00;67352.69;5075251;28;19912;-81
2023/11/22 10:46:31;;;;;;;;;;;;;;;-144.99;100.00;67352.69;5078046;28;19923;-82
2023/11/22 10:48:58;;;;;;;;;;;;;;;-144.99;100.00;67352.69;5077430;28;19916;-80
2023/11/22 10:51:25;;;;;;;;;;;;;;;-144.99;100.00;67352.69;5081106;28;19912;-80
2023/11/22 10:53:51;;;;;;;;;;;;;;;-144.99;100.00;67352.69;5096049;28;20306;-82
2023/11/22 10:56:17;;;;;;;;;;;;;;;-144.99;100.00;67352.69;5078373;28;19920;-80
2023/11/22 10:58:49;;;;;;;;;;;;;;;-144.99;100.00;67352.69;5092067;28;19933;-80
2023/11/22 11:01:16;;;;;;;;;;;;;;;-144.99;100.00;67352.69;5091145;28;19912;-80
2023/11/22 11:03:48;;;;;;;;;;;;;;;-144.99;100.00;67352.69;5092455;28;20298;-80
2023/11/22 11:06:15;;;;;;;;;;;;;;;-144.99;100.00;67352.69;5073830;28;19916;-80
2023/11/22 11:08:41;;;;;;;;;;;;;;;-144.99;100.00;67352.69;5074323;28;20423;-81
2023/11/22 11:11:07;;;;;;;;;;;;;;;-144.99;100.00;67352.69;5092647;28;19912;-83
2023/11/22 11:13:32;;;;;;;;;;;;;;;-144.99;100.00;67352.69;5092487;28;19912;-81
2023/11/22 11:15:58;;;;;;;;;;;;;;;-144.99;100.00;67352.69;5092202;28;19990;-84
2023/11/22 11:18:24;;;;;;;;;;;;;;;-144.99;100.00;67352.69;5074116;28;19912;-81
2023/11/22 11:20:50;;;;;;;;;;;;;;;-144.99;100.00;67352.69;5074816;28;19916;-81
2023/11/22 11:23:24;;;;;;;;;;;;;;;-144.99;100.00;67352.69;5092390;28;19912;-81
2023/11/22 11:25:53;;;;;;;;;;;;;;;-144.99;100.00;67352.69;5092431;28;19955;-82
2023/11/22 11:28:19;;;;;;;;;;;;;;;-144.99;100.00;67352.69;5092992;28;20382;-82
2023/11/22 11:30:45;;;;;;;;;;;;;;;-144.99;100.00;67352.69;5080543;28;19919;-80
2023/11/22 11:33:16;;;;;;;;;;;;;;;-144.99;100.00;67352.69;5100819;28;20100;-79
2023/11/22 11:35:45;;;;;;;;;;;;;;;-144.99;100.00;67352.69;5097116;28;19912;-80
2023/11/22 11:38:13;;;;;;;;;;;;;;;-144.99;100.00;67352.69;5097909;28;19923;-80
2023/11/22 11:40:40;;;;;;;;;;;;;;;-144.99;100.00;67352.69;5099733;28;19919;-80
2023/11/22 11:43:06;;;;;;;;;;;;;;;-144.99;100.00;67352.69;5098421;28;19919;-79
2023/11/22 11:45:35;;;;;;;;;;;;;;;-144.99;100.00;67352.69;5099260;28;19916;-80
2023/11/22 11:48:00;;;;;;;;;;;;;;;-144.99;100.00;67352.69;5079176;28;20371;-80
2023/11/22 11:50:26;;;;;;;;;;;;;;;-144.99;100.00;67352.69;5099664;28;19912;-80
2023/11/22 11:52:51;;;;;;;;;;;;;;;-144.99;100.00;67352.69;5097609;28;19915;-79
2023/11/22 11:55:16;;;;;;;;;;;;;;;-144.99;100.00;67352.69;5099767;28;20378;-79
2023/11/22 11:57:42;;;;;;;;;;;;;;;-144.99;100.00;67352.69;5098359;28;19918;-80
2023/11/22 12:00:09;;;;;;;;;;;;;;;-144.99;100.00;67352.69;5092108;28;19923;-80
2023/11/22 12:02:34;;;;;;;;;;;;;;;-144.99;100.00;67352.69;5095277;28;19990;-80
2023/11/22 12:05:01;;;;;;;;;;;;;;;-144.99;100.00;67352.69;5096118;28;19912;-80
2023/11/22 12:07:26;;;;;;;;;;;;;;;-144.99;100.00;67352.69;5078541;28;20006;-80
2023/11/22 12:09:51;;;;;;;;;;;;;;;-144.99;100.00;67352.69;5097167;28;19959;-80
2023/11/22 12:12:16;;;;;;;;;;;;;;;-144.99;100.00;67352.69;5078365;28;20022;-80